Bartlett, NH (03812)

2:01 PM EDT on September 04, 2015 (GMT -0400)
APRSWXNET | | Change Station
CLOSE
Current Station
Personal Weather Station
Location: Bartlett, NH
Elevation: 839 ft
Nearby Weather Stations

Elev 839 ft 44.07 °N, 71.26 °W | Updated 24 minutes ago

Clear
Clear
71 °F
Feels Like 76 °F
N
2
Wind Variable Wind from SE
Gusts 0.0 mph

Today
High -- | Low -- °F
--% Chance of Precip.
Yesterday
High -- | Low -- °F
Precip. -- in
6:11 AM 7:16 PM
Waning Gibbous, 57% visible
Pressure 30.22 in
Visibility 10.0 miles
Clouds Clear
Heat Index 76 °F
Dew Point 56 °F
Humidity 59%
Rainfall in
Snow Depth Not available.
UV 7 out of 12
Pollen 7.90 out of 12
Air Quality Not available.
Flu Activity Not available.
METAR KIZG 041754Z AUTO 00000KT 10SM CLR 23/14 A3022 RMK AO2 SLP232 T02280144 10233 20167 58006
Pressure 30.22 in
Visibility 10.0 miles
Clouds Clear
Heat Index 76 °F
Dew Point 56 °F
Humidity 59%
Rainfall in
Snow Depth Not available.
UV 7 out of 12
Pollen 7.90 out of 12
Air Quality Not available.
Flu Activity Not available.
METAR KIZG 041754Z AUTO 00000KT 10SM CLR 23/14 A3022 RMK AO2 SLP232 T02280144 10233 20167 58006

10-Day Weather Forecast

×

Almanac

Astronomy

Sep. 04, 2015 Rise Set
Actual Time
Civil Twilight
Nautical Twilight
Astronomical Twilight
Moon
Length of Visible Light
Length of Day
Tomorrow will be .
, % of the Moon is Illuminated

Today's Extremes

State Highs State Lows

Community

WunderPhotos

Upload Photos

1,852,253 photos uploaded!

WunderBlogs® & News

Nearby

Air Quality

  Air Quality AQ Index Pollutant
Not available.

Snow Depth

Station Depth Elevation

Earthquake Activity

City Distance Mag. Time & Date
Minimum magnitude displayed is 2.5.

Coastal Water Temperatures

Place Temperature

Stations

Nearby Weather Stations

Station Location Temp. Windchill Dew Point Humidity Wind Precip. Elev Updated Type